Aneta, North Dakota
Current Conditions -  °F | °C
As of 11:58 AM on Saturday 25 Oct 2014 (Local Time) from KRDR Reporting Station
Clear Clear  
Wind Chill: 13°   Ceiling: Unl
Heat Index: 13°   Visibility: 10mi
Dew Point: -1°   Wind: 15mph
Humidity: 37%   Direction: 340°NNW
Pressure: 30.09"   Gusts: NA
Location:  47.68°N, 97.99°W
Report Text: KRDR 251658Z AUTO 34013KT 10SM CLR 13/M01 A3009 RMK AO2 SLP198 T01321013
Loading
Personal Weather Stations






























Interactive Weather Map
Tropical Storm Tracking
New forecast layout! Learn more

10-Day Weather Forecast

Advertisements
Track Severe Weather on mobile